Time;durP1;ratioP1;P1;durP2;ratioP2;P2;SDS_P1;SDS_P2;PMS_P1;PMS_P2;Temp;Humidity;BMP_temperature;BMP_pressure;BME280_temperature;BME280_humidity;BME280_pressure;Samples;Min_cycle;Max_cycle;Signal;HPM_P1;HPM_P2
2022/05/18 00:01:46;;;;;;;19.25;6.70;;;;;;;14.68;81.33;101677.50;5117085;27;20030;-78
2022/05/18 00:04:12;;;;;;;23.90;6.60;;;;;;;14.66;81.14;101671.34;5092513;27;20505;-78
2022/05/18 00:06:37;;;;;;;20.30;6.57;;;;;;;14.66;80.94;101672.19;5108578;27;20046;-78
2022/05/18 00:09:03;;;;;;;20.70;6.72;;;;;;;14.62;81.31;101678.81;5107097;27;20036;-79
2022/05/18 00:11:30;;;;;;;19.30;6.50;;;;;;;14.62;80.95;101680.69;5111888;27;20057;-78
2022/05/18 00:13:56;;;;;;;19.33;6.80;;;;;;;14.59;80.92;101681.72;5108680;27;20136;-78
2022/05/18 00:16:24;;;;;;;19.35;6.78;;;;;;;14.55;81.27;101691.06;5111032;27;20028;-78
2022/05/18 00:18:49;;;;;;;17.75;6.32;;;;;;;14.51;81.57;101684.19;5089303;27;20046;-79
2022/05/18 00:21:15;;;;;;;25.25;7.35;;;;;;;14.48;81.73;101681.69;5111618;27;20027;-78
2022/05/18 00:23:40;;;;;;;19.25;7.32;;;;;;;14.45;82.89;101680.09;5117957;27;20092;-78
2022/05/18 00:26:07;;;;;;;19.92;6.75;;;;;;;14.41;82.44;101677.75;5107378;27;20039;-79
2022/05/18 00:28:33;;;;;;;20.30;6.85;;;;;;;14.37;82.06;101681.66;5110456;27;20102;-79
2022/05/18 00:30:59;;;;;;;21.88;6.88;;;;;;;14.35;82.24;101692.59;5109142;27;20483;-80
2022/05/18 00:33:24;;;;;;;21.13;7.30;;;;;;;14.32;82.25;101691.00;5113236;27;20031;-79
2022/05/18 00:35:50;;;;;;;20.52;7.47;;;;;;;14.33;82.68;101686.44;5079512;28;20036;-79
2022/05/18 00:38:15;;;;;;;23.98;7.22;;;;;;;14.33;82.50;101689.13;5107331;28;21948;-79
2022/05/18 00:40:45;;;;;;;23.48;7.15;;;;;;;14.29;82.58;101680.41;5094541;28;20086;-79
2022/05/18 00:43:29;;;;;;;20.25;7.47;;;;;;;14.29;82.53;101685.81;5077284;28;20039;-79
2022/05/18 00:45:55;;;;;;;19.25;6.60;;;;;;;14.28;83.37;101686.78;5098101;28;20028;-79
2022/05/18 00:48:20;;;;;;;24.75;8.20;;;;;;;14.26;83.06;101685.16;5088505;27;20041;-79
2022/05/18 00:50:46;;;;;;;20.77;7.38;;;;;;;14.27;83.26;101689.59;5106766;28;20424;-79
2022/05/18 00:53:25;;;;;;;24.02;7.70;;;;;;;14.26;82.69;101691.47;5083816;28;20414;-79
2022/05/18 00:56:00;;;;;;;19.98;7.63;;;;;;;14.24;82.73;101687.13;5092231;28;20035;-79
2022/05/18 00:58:37;;;;;;;18.70;7.03;;;;;;;14.23;82.74;101680.88;5098928;28;20026;-79
2022/05/18 01:01:02;;;;;;;21.88;7.70;;;;;;;14.22;83.17;101681.84;5083126;28;20122;-79
2022/05/18 01:03:36;;;;;;;20.65;7.53;;;;;;;14.23;82.59;101678.19;5078880;28;20115;-79
2022/05/18 01:06:13;;;;;;;23.67;6.85;;;;;;;14.22;83.24;101678.28;5107420;27;20031;-79
2022/05/18 01:08:54;;;;;;;24.52;7.15;;;;;;;14.18;83.38;101685.75;5086721;28;20110;-79
2022/05/18 01:11:20;;;;;;;22.13;6.43;;;;;;;14.13;83.59;101688.81;5082638;28;20493;-79
2022/05/18 01:13:45;;;;;;;18.67;6.50;;;;;;;14.13;83.97;101682.56;5108261;28;20019;-80
2022/05/18 01:16:10;;;;;;;20.65;7.10;;;;;;;14.11;83.86;101685.34;5086811;27;20023;-79
2022/05/18 01:18:36;;;;;;;19.58;6.75;;;;;;;14.10;84.26;101683.63;5094922;28;20074;-79
2022/05/18 01:21:02;;;;;;;20.80;6.70;;;;;;;14.10;84.33;101685.47;5102735;28;20031;-79
2022/05/18 01:23:45;;;;;;;18.33;7.53;;;;;;;14.08;84.13;101682.03;5096971;28;20051;-79
2022/05/18 01:26:33;;;;;;;20.35;7.50;;;;;;;14.06;84.49;101684.84;5077951;28;20028;-79
2022/05/18 01:29:00;;;;;;;21.27;7.85;;;;;;;14.03;84.42;101684.22;5083722;28;20024;-79
2022/05/18 01:32:02;;;;;;;18.77;7.80;;;;;;;14.05;83.79;101685.81;5100215;27;20027;-79
2022/05/18 01:34:32;;;;;;;22.38;7.40;;;;;;;14.01;84.82;101680.75;5079297;28;20115;-80
2022/05/18 01:36:58;;;;;;;19.00;6.97;;;;;;;14.01;84.91;101680.75;5101611;28;20116;-79
2022/05/18 01:39:33;;;;;;;21.17;6.85;;;;;;;13.99;84.71;101683.56;5088947;28;20027;-79
2022/05/18 01:42:24;;;;;;;23.45;7.35;;;;;;;13.99;84.15;101686.28;5079374;28;20031;-79
2022/05/18 01:44:49;;;;;;;21.35;7.50;;;;;;;13.95;84.69;101682.94;5103569;28;20467;-79
2022/05/18 01:47:15;;;;;;;19.60;7.60;;;;;;;13.97;84.94;101680.97;5084129;28;20030;-79
2022/05/18 01:49:44;;;;;;;22.23;6.97;;;;;;;14.01;83.75;101675.34;5108898;27;20106;-79
2022/05/18 01:52:10;;;;;;;22.42;6.97;;;;;;;14.04;84.82;101685.94;5102165;28;20028;-79
2022/05/18 01:54:46;;;;;;;20.67;6.78;;;;;;;14.05;84.49;101679.56;5093552;28;20435;-79
2022/05/18 01:57:13;;;;;;;20.58;7.18;;;;;;;14.01;85.26;101684.31;5081018;28;20059;-79
2022/05/18 01:59:39;;;;;;;18.80;7.03;;;;;;;13.98;85.01;101682.72;5074489;28;20494;-79
2022/05/18 02:02:06;;;;;;;21.60;7.60;;;;;;;13.99;84.54;101679.00;5088405;28;20055;-79
2022/05/18 02:04:32;;;;;;;20.45;7.05;;;;;;;13.98;85.17;101681.84;5088284;28;20024;-79
2022/05/18 02:06:59;;;;;;;22.60;7.72;;;;;;;13.98;84.82;101680.00;5077427;28;20028;-79
2022/05/18 02:09:26;;;;;;;19.05;7.38;;;;;;;13.98;85.65;101682.72;5094960;28;20483;-79
2022/05/18 02:11:52;;;;;;;22.60;7.28;;;;;;;13.98;85.64;101684.53;5084521;28;20028;-79
2022/05/18 02:14:17;;;;;;;22.45;7.28;;;;;;;13.98;85.98;101676.44;5109844;28;20463;-79
2022/05/18 02:16:43;;;;;;;21.67;7.53;;;;;;;14.00;85.40;101685.31;5101932;27;20191;-79
2022/05/18 02:19:08;;;;;;;20.92;7.60;;;;;;;13.99;85.58;101681.72;5104075;27;20043;-79
2022/05/18 02:21:33;;;;;;;22.17;7.70;;;;;;;13.99;86.20;101678.16;5092752;28;20043;-79
2022/05/18 02:23:59;;;;;;;20.05;7.43;;;;;;;13.98;86.01;101671.91;5092818;28;20027;-78
2022/05/18 02:26:24;;;;;;;18.48;8.07;;;;;;;14.01;85.66;101672.66;5074153;28;20495;-78
2022/05/18 02:28:49;;;;;;;18.20;7.97;;;;;;;14.02;86.58;101677.09;5079917;28;20033;-78
2022/05/18 02:31:15;;;;;;;18.17;7.15;;;;;;;14.05;85.42;101671.44;5101683;27;20462;-79
2022/05/18 02:33:41;;;;;;;20.73;8.60;;;;;;;14.07;86.73;101672.19;5107747;27;20053;-79
2022/05/18 02:36:07;;;;;;;21.58;8.15;;;;;;;14.10;87.16;101672.81;5095241;28;20027;-78
2022/05/18 02:38:35;;;;;;;22.35;9.20;;;;;;;14.09;87.76;101678.34;5108164;27;20102;-78
2022/05/18 02:41:00;;;;;;;24.48;9.48;;;;;;;14.10;87.84;101674.66;5071009;28;20016;-78
2022/05/18 02:43:27;;;;;;;25.20;8.50;;;;;;;14.09;87.79;101678.34;5098519;28;20039;-78
2022/05/18 02:46:08;;;;;;;21.05;8.70;;;;;;;14.09;87.38;101668.38;5095063;28;20024;-78
2022/05/18 02:48:34;;;;;;;21.50;9.18;;;;;;;14.11;87.52;101674.53;5095148;27;20106;-78
2022/05/18 02:50:59;;;;;;;24.98;9.05;;;;;;;14.15;87.91;101672.47;5075424;28;20043;-79
2022/05/18 02:53:25;;;;;;;22.05;9.05;;;;;;;14.19;87.48;101679.38;5072829;28;20043;-79
2022/05/18 02:56:06;;;;;;;24.02;9.40;;;;;;;14.21;86.72;101677.41;5071804;28;20488;-79
2022/05/18 02:58:42;;;;;;;22.52;9.55;;;;;;;14.21;87.56;101671.16;5081383;28;20027;-79
2022/05/18 03:01:10;;;;;;;20.10;9.60;;;;;;;14.21;87.98;101680.13;5082989;28;20043;-79
2022/05/18 03:03:36;;;;;;;20.40;8.95;;;;;;;14.21;87.95;101688.22;5087311;28;20023;-79
2022/05/18 03:06:03;;;;;;;22.45;8.85;;;;;;;14.24;87.52;101687.13;5079608;28;20394;-79
2022/05/18 03:08:30;;;;;;;20.88;9.27;;;;;;;14.25;87.80;101683.47;5096460;28;20028;-79
2022/05/18 03:10:55;;;;;;;21.85;8.75;;;;;;;14.27;87.71;101693.16;5078136;28;20074;-79
2022/05/18 03:13:21;;;;;;;21.42;9.43;;;;;;;14.32;87.34;101688.28;5094208;28;20471;-79
2022/05/18 03:15:47;;;;;;;21.50;9.95;;;;;;;14.34;87.33;101691.72;5104263;28;20028;-79
2022/05/18 03:18:13;;;;;;;21.88;8.95;;;;;;;14.40;86.82;101700.38;5075344;28;20031;-79
2022/05/18 03:23:34;;;;;;;23.63;9.55;;;;;;;14.48;87.50;101706.03;5075259;28;20513;-79
2022/05/18 03:26:21;;;;;;;21.33;10.32;;;;;;;14.56;85.79;101703.63;5089668;28;20028;-79
2022/05/18 03:28:50;;;;;;;22.17;9.82;;;;;;;14.64;86.04;101703.94;5075453;28;20047;-79
2022/05/18 03:31:16;;;;;;;21.75;10.85;;;;;;;14.74;85.59;101708.63;5074641;28;20020;-78
2022/05/18 03:33:42;;;;;;;23.38;11.43;;;;;;;14.79;85.03;101701.03;5091069;28;20023;-78
2022/05/18 03:36:09;;;;;;;23.70;11.45;;;;;;;14.84;86.18;101709.63;5068167;28;20028;-78
2022/05/18 03:38:35;;;;;;;22.10;10.23;;;;;;;14.90;85.84;101711.84;5079124;28;20480;-78
2022/05/18 03:41:00;;;;;;;23.38;9.52;;;;;;;14.93;85.57;101706.19;5079856;28;20016;-78
2022/05/18 03:43:26;;;;;;;25.92;11.45;;;;;;;14.96;85.27;101716.78;5075933;28;20039;-78
2022/05/18 03:45:51;;;;;;;24.08;10.55;;;;;;;15.03;84.60;101722.59;5080586;28;20345;-78
2022/05/18 03:48:18;;;;;;;23.00;10.50;;;;;;;15.07;84.90;101723.22;5082223;28;20041;-79
2022/05/18 03:50:48;;;;;;;20.83;9.80;;;;;;;15.10;84.48;101718.44;5072671;28;20048;-79
2022/05/18 03:53:13;;;;;;;22.58;10.80;;;;;;;15.15;84.19;101727.06;5070667;28;20043;-79
2022/05/18 03:55:41;;;;;;;27.00;9.73;;;;;;;15.18;84.61;101725.94;5082859;28;20032;-79
2022/05/18 03:58:07;;;;;;;20.85;10.57;;;;;;;15.22;83.99;101722.00;5083853;28;20034;-78
2022/05/18 04:00:33;;;;;;;20.77;9.60;;;;;;;15.27;83.65;101714.41;5067827;28;20029;-78
2022/05/18 04:03:00;;;;;;;21.80;10.00;;;;;;;15.31;83.22;101712.28;5088255;28;20024;-78
2022/05/18 04:05:25;;;;;;;20.38;9.45;;;;;;;15.35;83.62;101711.06;5069949;28;20024;-79
2022/05/18 04:07:50;;;;;;;21.33;9.93;;;;;;;15.42;83.11;101714.13;5070238;28;20460;-79
2022/05/18 04:10:17;;;;;;;22.27;9.02;;;;;;;15.46;83.25;101708.38;5079484;28;20031;-79
2022/05/18 04:12:43;;;;;;;20.88;8.73;;;;;;;15.53;82.56;101709.59;5084706;28;20056;-79
2022/05/18 04:15:10;;;;;;;24.27;9.23;;;;;;;15.59;82.37;101710.91;5089768;28;20382;-79
2022/05/18 04:17:36;;;;;;;20.45;8.52;;;;;;;15.64;82.04;101711.44;5079103;28;20041;-79
2022/05/18 04:20:04;;;;;;;20.30;8.10;;;;;;;15.70;81.81;101707.38;5115708;27;20109;-79
2022/05/18 04:22:29;;;;;;;19.58;8.30;;;;;;;15.75;81.18;101718.66;5095844;28;20101;-79
2022/05/18 04:24:55;;;;;;;20.52;7.85;;;;;;;15.81;81.53;101715.53;5102906;27;20031;-79
2022/05/18 04:27:20;;;;;;;21.70;8.20;;;;;;;15.87;81.04;101712.28;5095183;28;20050;-79
2022/05/18 04:29:45;;;;;;;21.13;8.25;;;;;;;15.92;81.05;101713.78;5098179;28;20056;-78
2022/05/18 04:32:11;;;;;;;22.35;7.40;;;;;;;15.97;80.72;101717.81;5082208;27;20173;-78
2022/05/18 04:34:36;;;;;;;19.70;8.20;;;;;;;16.02;80.43;101723.72;5084440;28;20445;-78
2022/05/18 04:37:01;;;;;;;20.70;7.75;;;;;;;16.06;79.77;101727.91;5107327;27;20031;-78
2022/05/18 04:39:27;;;;;;;20.35;7.60;;;;;;;16.12;79.45;101731.09;5088267;28;20043;-78
2022/05/18 04:41:52;;;;;;;20.02;7.43;;;;;;;16.14;80.28;101746.25;5093889;28;20036;-78
2022/05/18 04:44:17;;;;;;;21.10;8.15;;;;;;;16.19;79.59;101743.16;5073894;28;20127;-78
2022/05/18 04:46:43;;;;;;;20.33;7.88;;;;;;;16.21;80.49;101746.63;5110097;28;20023;-79
2022/05/18 04:49:11;;;;;;;19.27;7.22;;;;;;;16.25;79.07;101742.63;5108443;27;20112;-78
2022/05/18 04:51:36;;;;;;;19.42;7.32;;;;;;;16.30;79.19;101742.28;5103304;28;20647;-78
2022/05/18 04:54:01;;;;;;;20.08;8.23;;;;;;;16.34;78.88;101747.31;5085911;28;20027;-78
2022/05/18 04:56:26;;;;;;;20.83;7.30;;;;;;;16.37;78.37;101746.16;5110797;28;20131;-78
2022/05/18 04:58:52;;;;;;;22.08;8.10;;;;;;;16.42;78.27;101752.09;5091902;28;20114;-78
2022/05/18 05:01:17;;;;;;;20.38;7.28;;;;;;;16.47;77.87;101751.69;5084651;28;20019;-78
2022/05/18 05:03:43;;;;;;;18.80;7.63;;;;;;;16.54;77.01;101769.19;5084003;27;20035;-78
2022/05/18 05:06:08;;;;;;;21.42;7.70;;;;;;;16.60;77.78;101765.94;5102766;28;20024;-79
2022/05/18 05:08:34;;;;;;;19.80;6.53;;;;;;;16.66;78.22;101759.16;5089668;28;20443;-78
2022/05/18 05:11:00;;;;;;;17.45;6.50;;;;;;;16.72;77.45;101767.63;5101235;28;20448;-79
2022/05/18 05:13:26;;;;;;;18.35;7.32;;;;;;;16.77;78.40;101769.97;5094110;28;20035;-79
2022/05/18 05:15:59;;;;;;;16.95;6.85;;;;;;;16.83;77.31;101764.00;5089952;28;20396;-79
2022/05/18 05:18:24;;;;;;;18.55;7.15;;;;;;;16.91;76.76;101780.53;5102038;27;20096;-79
2022/05/18 05:20:49;;;;;;;17.40;7.13;;;;;;;16.95;76.56;101775.69;5092322;28;20028;-79
2022/05/18 05:23:14;;;;;;;17.45;7.32;;;;;;;17.02;76.49;101781.47;5093273;28;20031;-79
2022/05/18 05:25:40;;;;;;;19.15;6.57;;;;;;;17.06;75.91;101778.34;5092936;28;20505;-78
2022/05/18 05:28:08;;;;;;;18.48;6.03;;;;;;;17.12;75.72;101785.97;5077376;28;20054;-79
2022/05/18 05:30:34;;;;;;;21.58;6.90;;;;;;;17.19;75.86;101780.00;5102979;27;20459;-78
2022/05/18 05:32:59;;;;;;;22.45;6.95;;;;;;;17.25;75.86;101779.47;5104608;27;20034;-78
2022/05/18 05:35:24;;;;;;;24.45;7.63;;;;;;;17.29;75.13;101784.50;5107626;28;20073;-78
2022/05/18 05:37:50;;;;;;;19.25;7.05;;;;;;;17.34;74.77;101792.25;5092664;28;20403;-79
2022/05/18 05:40:16;;;;;;;18.98;6.95;;;;;;;17.38;74.34;101785.56;5107394;28;20474;-78
2022/05/18 05:42:42;;;;;;;18.08;7.07;;;;;;;17.48;73.93;101791.03;5100359;28;20497;-78
2022/05/18 05:45:08;;;;;;;14.70;6.55;;;;;;;17.54;74.76;101790.53;5111298;28;20106;-78
2022/05/18 05:47:33;;;;;;;19.40;6.10;;;;;;;17.60;74.40;101789.09;5086442;27;20060;-77
2022/05/18 05:49:58;;;;;;;18.15;6.10;;;;;;;17.67;74.56;101800.28;5108283;27;20427;-78
2022/05/18 05:52:23;;;;;;;20.00;6.80;;;;;;;17.72;73.40;101803.47;5111831;27;20024;-78
2022/05/18 05:54:49;;;;;;;17.88;6.63;;;;;;;17.76;73.98;101810.34;5100800;28;20039;-79
2022/05/18 05:57:14;;;;;;;19.30;7.22;;;;;;;17.85;73.08;101804.09;5077895;28;20063;-78
2022/05/18 05:59:39;;;;;;;19.13;6.78;;;;;;;17.94;73.52;101813.34;5082476;28;20434;-78
2022/05/18 06:02:08;;;;;;;18.48;6.57;;;;;;;18.04;72.43;101813.34;5107891;28;20032;-78
2022/05/18 06:04:35;;;;;;;19.52;6.57;;;;;;;18.09;72.48;101817.38;5090397;28;20483;-78
2022/05/18 06:07:00;;;;;;;17.20;6.38;;;;;;;18.13;73.20;101812.53;5089134;28;20123;-79
2022/05/18 06:09:26;;;;;;;16.75;6.03;;;;;;;18.15;73.42;101807.81;5088778;28;20054;-78
2022/05/18 06:11:51;;;;;;;18.13;6.50;;;;;;;18.16;72.74;101807.66;5089081;28;20059;-78
2022/05/18 06:14:18;;;;;;;17.77;6.43;;;;;;;18.20;73.89;101819.16;5087843;28;20502;-78
2022/05/18 06:16:46;;;;;;;16.95;6.43;;;;;;;18.22;73.63;101825.31;5085099;28;20042;-79
2022/05/18 06:19:12;;;;;;;20.15;6.25;;;;;;;18.25;72.89;101826.91;5110320;27;20457;-79
2022/05/18 06:21:38;;;;;;;17.42;6.45;;;;;;;18.29;72.64;101836.50;5086831;28;20440;-79
2022/05/18 06:24:03;;;;;;;18.20;6.55;;;;;;;18.35;71.64;101841.38;5105774;28;20100;-79
2022/05/18 06:26:28;;;;;;;19.33;6.38;;;;;;;18.39;71.43;101847.41;5101304;28;20660;-79
2022/05/18 06:28:54;;;;;;;22.83;7.18;;;;;;;18.45;71.71;101844.16;5071190;28;20016;-79
2022/05/18 06:31:19;;;;;;;19.75;6.88;;;;;;;18.49;70.94;101841.00;5082152;28;20439;-79
2022/05/18 06:33:44;;;;;;;19.55;7.45;;;;;;;18.52;71.28;101840.72;5101113;28;20086;-79
2022/05/18 06:36:10;;;;;;;18.02;6.10;;;;;;;18.57;71.22;101839.44;5099354;28;20395;-79
2022/05/18 06:38:36;;;;;;;18.63;7.00;;;;;;;18.62;71.27;101848.88;5084207;28;20024;-78
2022/05/18 06:43:44;;;;;;;22.27;7.50;;;;;;;18.69;69.92;101852.75;5100169;28;20091;-79
2022/05/18 06:46:10;;;;;;;20.55;7.80;;;;;;;18.71;69.88;101851.75;5075080;28;20134;-79
2022/05/18 06:48:35;;;;;;;20.38;6.63;;;;;;;18.75;68.53;101855.94;5096286;27;20034;-79
2022/05/18 06:51:01;;;;;;;19.48;7.80;;;;;;;18.76;68.66;101853.06;5091333;28;20028;-79
2022/05/18 06:53:26;;;;;;;21.58;7.25;;;;;;;18.76;69.11;101852.22;5075494;28;20442;-79
2022/05/18 06:55:52;;;;;;;21.00;6.95;;;;;;;18.79;68.72;101852.78;5086187;28;20111;-79
2022/05/18 06:58:18;;;;;;;23.92;7.55;;;;;;;18.80;68.66;101851.78;5089731;28;20024;-79
2022/05/18 07:00:43;;;;;;;19.95;7.05;;;;;;;18.80;67.93;101865.41;5080278;28;20031;-79
2022/05/18 07:03:09;;;;;;;19.88;7.28;;;;;;;18.82;69.23;101874.28;5077151;28;20030;-79
2022/05/18 07:05:34;;;;;;;21.20;9.32;;;;;;;18.86;69.62;101869.47;5103457;28;20411;-79
2022/05/18 07:07:59;;;;;;;21.92;9.02;;;;;;;18.91;69.78;101874.47;5090501;28;20114;-79
2022/05/18 07:10:26;;;;;;;19.05;8.68;;;;;;;18.97;68.78;101873.91;5108668;28;20050;-78
2022/05/18 07:12:52;;;;;;;20.58;10.15;;;;;;;19.07;69.57;101880.22;5085065;28;20020;-80
2022/05/18 07:15:18;;;;;;;23.23;10.05;;;;;;;19.12;68.70;101886.09;5092531;28;20028;-81
2022/05/18 07:17:43;;;;;;;23.17;10.73;;;;;;;19.15;69.84;101880.38;5082124;28;20030;-81
2022/05/18 07:20:09;;;;;;;25.88;10.38;;;;;;;19.18;69.56;101884.66;5131994;27;20138;-81
2022/05/18 07:22:35;;;;;;;24.15;10.85;;;;;;;19.21;69.70;101879.78;5109971;28;20088;-81
2022/05/18 07:25:00;;;;;;;23.15;11.32;;;;;;;19.25;70.33;101890.41;5088321;28;20059;-81
2022/05/18 07:27:25;;;;;;;22.77;10.32;;;;;;;19.26;70.39;101897.56;5088188;28;20107;-81
2022/05/18 07:29:51;;;;;;;23.13;10.10;;;;;;;19.29;70.13;101898.13;5088599;28;20133;-81
2022/05/18 07:32:16;;;;;;;22.92;9.98;;;;;;;19.30;70.58;101896.28;5078892;28;20114;-81
2022/05/18 07:34:43;;;;;;;23.60;10.70;;;;;;;19.29;70.80;101894.56;5091361;28;20489;-80
2022/05/18 07:37:09;;;;;;;22.55;10.85;;;;;;;19.31;69.97;101900.72;5092688;28;20019;-79
2022/05/18 07:39:35;;;;;;;24.02;10.70;;;;;;;19.33;70.38;101891.38;5092871;28;20035;-79
2022/05/18 07:42:01;;;;;;;21.85;10.70;;;;;;;19.37;71.63;101890.09;5086939;28;20419;-79
2022/05/18 07:44:27;;;;;;;23.13;10.60;;;;;;;19.41;70.91;101889.81;5081661;28;20115;-79
2022/05/18 07:46:53;;;;;;;27.10;11.65;;;;;;;19.45;71.45;101893.97;5109306;28;20028;-79
2022/05/18 07:49:19;;;;;;;23.50;10.85;;;;;;;19.50;70.08;101898.00;5108032;27;20027;-79
2022/05/18 07:51:44;;;;;;;22.35;10.05;;;;;;;19.56;71.12;101894.66;5087969;28;20035;-79
2022/05/18 07:54:10;;;;;;;24.10;10.25;;;;;;;19.66;70.46;101904.69;5090661;28;20385;-79
2022/05/18 07:56:36;;;;;;;25.92;10.70;;;;;;;19.69;69.76;101901.66;5102342;28;20070;-79
2022/05/18 07:59:03;;;;;;;22.63;9.88;;;;;;;19.77;70.27;101909.97;5097247;28;20040;-79
2022/05/18 08:01:29;;;;;;;22.33;11.82;;;;;;;19.87;70.74;101910.84;5096556;28;20020;-79
2022/05/18 08:03:54;;;;;;;22.17;11.35;;;;;;;20.00;71.29;101913.25;5086295;28;20034;-79
2022/05/18 08:06:19;;;;;;;27.77;12.60;;;;;;;20.05;71.62;101924.56;5100678;28;20085;-78
2022/05/18 08:08:45;;;;;;;23.55;11.10;;;;;;;20.10;71.06;101907.75;5086141;28;20039;-79
2022/05/18 08:16:38;;;;;;;26.05;12.30;;;;;;;20.16;70.95;101911.75;5104626;28;20516;-79
2022/05/18 08:19:06;;;;;;;24.60;12.98;;;;;;;20.18;70.83;101905.16;5103748;28;20146;-79
2022/05/18 08:21:31;;;;;;;21.48;10.85;;;;;;;20.24;71.00;101906.41;5113317;28;20028;-78
2022/05/18 08:23:57;;;;;;;26.23;12.65;;;;;;;20.28;70.86;101910.56;5096079;28;20035;-78
2022/05/18 08:26:22;;;;;;;23.58;11.90;;;;;;;20.36;71.18;101909.81;5114552;28;20375;-78
2022/05/18 08:28:47;;;;;;;26.42;10.95;;;;;;;20.40;71.36;101905.78;5114729;28;20063;-78
2022/05/18 08:31:15;;;;;;;20.30;10.15;;;;;;;20.46;71.12;101917.97;5091501;28;20095;-78
2022/05/18 08:33:40;;;;;;;22.92;11.80;;;;;;;20.49;69.46;101920.38;5102261;28;20062;-79
2022/05/18 08:36:07;;;;;;;26.05;12.13;;;;;;;20.54;70.15;101926.25;5106379;28;20063;-79
2022/05/18 08:38:34;;;;;;;25.77;11.40;;;;;;;20.62;70.84;101925.50;5094570;28;20035;-78
2022/05/18 08:41:19;;;;;;;23.60;11.15;;;;;;;20.68;69.90;101917.56;5096142;28;20028;-78
2022/05/18 08:43:50;;;;;;;23.48;10.27;;;;;;;20.76;69.60;101930.44;5080537;28;20032;-78
2022/05/18 08:46:46;;;;;;;23.92;10.60;;;;;;;20.79;69.11;101924.69;5073316;28;20088;-79
2022/05/18 08:49:36;;;;;;;22.33;10.13;;;;;;;20.87;69.03;101932.97;5099222;27;20024;-79
2022/05/18 08:52:29;;;;;;;20.10;9.70;;;;;;;20.94;69.41;101922.31;5101299;28;20024;-79
2022/05/18 08:55:26;;;;;;;22.00;10.93;;;;;;;20.99;68.42;101921.84;5092505;28;20114;-78
2022/05/18 08:57:54;;;;;;;22.88;11.52;;;;;;;21.04;67.28;101927.69;5075463;28;20038;-78
2022/05/18 09:00:34;;;;;;;23.30;11.32;;;;;;;21.09;68.11;101918.00;5075877;28;20063;-78
2022/05/18 09:03:21;;;;;;;21.20;9.65;;;;;;;21.14;68.92;101917.53;5113417;28;20115;-78
2022/05/18 09:06:05;;;;;;;23.92;10.85;;;;;;;21.17;68.64;101919.94;5106193;27;20012;-79
2022/05/18 09:08:37;;;;;;;20.85;8.93;;;;;;;21.27;68.75;101918.03;5109736;28;20050;-78
2022/05/18 09:11:08;;;;;;;24.88;10.45;;;;;;;21.26;66.19;101926.34;5115645;27;20023;-78
2022/05/18 09:13:34;;;;;;;19.42;8.25;;;;;;;21.30;66.10;101914.09;5093393;28;20511;-78
2022/05/18 09:16:10;;;;;;;19.65;8.20;;;;;;;21.36;65.59;101920.81;5111533;28;20028;-79
2022/05/18 09:18:45;;;;;;;19.55;7.75;;;;;;;21.37;65.30;101922.53;5119944;27;20055;-78
2022/05/18 09:21:33;;;;;;;17.70;5.70;;;;;;;21.43;65.89;101925.47;5088828;28;20046;-78
2022/05/18 09:24:11;;;;;;;19.33;7.88;;;;;;;21.46;64.87;101927.03;5089914;28;20023;-79
2022/05/18 09:27:04;;;;;;;17.40;7.38;;;;;;;21.42;65.37;101925.63;5104860;28;20127;-78
2022/05/18 09:30:02;;;;;;;22.38;8.35;;;;;;;21.43;64.85;101922.75;5115949;27;20019;-79
2022/05/18 09:32:36;;;;;;;17.83;6.43;;;;;;;21.44;64.65;101929.09;5104614;27;20036;-79
2022/05/18 09:35:30;;;;;;;13.73;4.65;;;;;;;21.48;64.87;101925.88;5111975;27;20023;-79
2022/05/18 09:38:05;;;;;;;16.17;5.85;;;;;;;21.58;64.55;101925.81;5102349;28;20039;-79
2022/05/18 09:40:39;;;;;;;17.58;6.20;;;;;;;21.58;64.52;101922.22;5087290;28;20493;-79
2022/05/18 09:43:10;;;;;;;19.15;7.93;;;;;;;21.60;63.41;101921.03;5103667;27;20478;-78
2022/05/18 09:45:39;;;;;;;21.13;6.95;;;;;;;21.64;64.04;101922.44;5108123;28;20023;-78
2022/05/18 09:48:19;;;;;;;16.83;6.13;;;;;;;21.68;64.11;101920.25;5085396;28;20043;-78
2022/05/18 09:50:48;;;;;;;15.77;5.05;;;;;;;21.71;63.01;101924.53;5109528;28;20033;-78
2022/05/18 09:53:14;;;;;;;15.63;5.40;;;;;;;21.78;62.76;101925.63;5107492;28;20497;-78
2022/05/18 09:55:40;;;;;;;12.55;4.20;;;;;;;21.89;64.62;101921.75;5089270;28;20118;-78
2022/05/18 09:58:13;;;;;;;10.73;3.70;;;;;;;21.91;64.24;101923.31;5090210;28;20028;-78
2022/05/18 10:00:39;;;;;;;13.25;4.45;;;;;;;21.94;61.78;101927.63;5085584;28;20043;-78
2022/05/18 10:08:48;;;;;;;8.20;3.30;;;;;;;22.05;61.15;101934.69;5105619;28;20081;-78
2022/05/18 10:11:17;;;;;;;14.05;3.92;;;;;;;22.09;59.82;101927.88;5089942;28;20031;-78
2022/05/18 10:13:54;;;;;;;;;;;;;;;22.07;61.63;101930.78;5110533;28;20276;-78
2022/05/18 10:16:31;;;;;;;13.07;3.50;;;;;;;22.13;60.27;101926.53;5104900;28;19911;-79
2022/05/18 10:18:59;;;;;;;10.65;3.63;;;;;;;22.14;60.46;101931.00;5093953;28;20036;-78
2022/05/18 10:21:55;;;;;;;13.07;3.80;;;;;;;22.18;60.13;101932.34;5108218;28;20509;-79
2022/05/18 10:24:39;;;;;;;9.80;3.42;;;;;;;22.15;60.53;101932.69;5074705;27;20398;-79
2022/05/18 10:27:16;;;;;;;12.95;4.03;;;;;;;22.21;61.09;101931.19;5088910;28;20035;-78
2022/05/18 10:29:43;;;;;;;12.68;4.70;;;;;;;22.23;59.57;101931.91;5100789;28;20111;-78
2022/05/18 10:32:19;;;;;;;14.40;5.35;;;;;;;22.19;58.79;101930.50;5079784;27;20039;-79
2022/05/18 10:34:51;;;;;;;14.05;4.90;;;;;;;22.23;60.25;101923.69;5106337;28;20403;-79
2022/05/18 10:37:32;;;;;;;16.50;5.60;;;;;;;22.21;60.52;101923.81;5104297;27;20035;-81
2022/05/18 10:40:09;;;;;;;14.73;4.90;;;;;;;22.23;60.18;101921.78;5109764;27;20028;-80
2022/05/18 10:42:47;;;;;;;14.48;4.50;;;;;;;22.27;61.47;101920.44;5094861;27;20115;-82
2022/05/18 10:45:25;;;;;;;14.88;4.80;;;;;;;22.29;61.07;101912.91;5087207;28;20081;-81
2022/05/18 10:47:51;;;;;;;16.15;5.07;;;;;;;22.31;61.09;101919.09;5099000;28;20039;-81
2022/05/18 10:50:25;;;;;;;19.88;5.55;;;;;;;22.41;60.67;101907.19;5104084;28;20371;-82
2022/05/18 10:53:00;;;;;;;13.80;4.82;;;;;;;22.40;59.78;101903.59;5108810;27;20074;-81
2022/05/18 10:55:29;;;;;;;13.18;4.63;;;;;;;22.50;59.05;101903.44;5084162;28;20483;-81
2022/05/18 10:58:03;;;;;;;11.93;4.38;;;;;;;22.56;60.34;101912.88;5107669;27;20114;-81
2022/05/18 11:00:43;;;;;;;13.68;4.72;;;;;;;22.61;59.33;101900.41;5121714;27;20495;-81
2022/05/18 11:03:31;;;;;;;15.05;5.10;;;;;;;22.62;60.92;101918.56;5094394;27;20027;-80
2022/05/18 11:06:07;;;;;;;23.03;6.33;;;;;;;22.68;59.90;101906.06;5103744;27;20031;-82
2022/05/18 11:08:32;;;;;;;14.60;5.38;;;;;;;22.71;58.81;101899.41;5088219;28;20285;-81
2022/05/18 11:11:04;;;;;;;18.20;5.47;;;;;;;22.78;61.72;101904.06;5090528;27;20020;-81
2022/05/18 11:13:38;;;;;;;14.18;5.75;;;;;;;22.80;59.61;101904.75;5096741;28;20027;-81
2022/05/18 11:16:22;;;;;;;19.10;6.18;;;;;;;22.80;59.32;101910.22;5104313;28;20110;-81
2022/05/18 11:18:59;;;;;;;19.90;5.28;;;;;;;22.81;60.46;101900.97;5080080;28;20132;-81
2022/05/18 11:21:36;;;;;;;19.35;4.72;;;;;;;22.81;59.32;101905.59;5064400;28;20024;-81
2022/05/18 11:24:14;;;;;;;14.23;5.65;;;;;;;22.82;59.17;101907.31;5066161;28;20116;-81
2022/05/18 11:26:39;;;;;;;16.15;6.13;;;;;;;22.86;57.98;101903.22;5062278;28;20468;-82
2022/05/18 11:29:34;;;;;;;14.30;4.70;;;;;;;22.89;59.39;101891.91;5068414;28;20048;-81
2022/05/18 11:32:26;;;;;;;15.55;4.95;;;;;;;22.90;58.26;101893.63;5063625;28;21637;-81
2022/05/18 11:35:11;;;;;;;12.73;3.97;;;;;;;22.92;59.49;101891.56;5066974;28;20384;-81
2022/05/18 11:37:57;;;;;;;14.70;4.90;;;;;;;23.00;59.91;101890.72;5063669;28;20036;-81
2022/05/18 11:40:41;;;;;;;18.77;5.10;;;;;;;23.01;58.26;101887.81;5054905;28;20024;-83
2022/05/18 11:43:39;;;;;;;18.45;5.25;;;;;;;22.98;58.19;101890.88;5065477;28;20089;-81
2022/05/18 11:46:30;;;;;;;19.42;5.18;;;;;;;22.99;58.52;101889.88;5062625;28;20060;-81